Centre Harbor, New Hampshire
Current Conditions -  °F | °C
As of 3:55 AM on Monday 20 Oct 2014 (Local Time) from KLCI Reporting Station
Scattered Clouds Scattered Clouds  
Wind Chill: 34°   Ceiling: Unl
Heat Index: 37°   Visibility: 10mi
Dew Point: 21°   Wind: 5mph
Humidity: 52%   Direction: 260°W
Pressure: 29.94"   Gusts: NA
Location:  43.7121°N, 71.4886°W
Report Text: KLCI 200755Z AUTO 26004KT 10SM SCT042 03/M06 A2994 RMK AO1
Loading
Personal Weather Stations






























Interactive Weather Map
Tropical Storm Tracking
New forecast layout! Learn more

10-Day Weather Forecast

Advertisements
Track Severe Weather on mobile